Dolce Far Niente — CFK9784 — position and weather

sailwx.info

Track history (hours):
 
Tides and Currents Weather Stations Pressure Air Temp Water Temp Dewpoint Dewpoint Depression Visibility Wind Speed Wind Dir Waves Ship Positions

Dolce Far Niente

Last reported at 2017-Jun-28 02:01 UTC. Time now 2017-Jun-28 17:29 UTC.
Position N 50°17' W 125°14'.

Type: Pleasure craft. MMSI: 316020002.

Date/timePositionNaut miles runAvg speedWind from/ knotsBaromVisibWave heightAir tempDewpointWater temp
2017-Jun-28 02:01N 50°17' W 125°14'0 0.1
2017-Jun-28 01:55N 50°17' W 125°14'0 0.0
2017-Jun-28 01:28N 50°17' W 125°14'0 0.0
2017-Jun-28 00:58N 50°17' W 125°14'0 0.0
2017-Jun-28 00:25N 50°17' W 125°14'0 0.0
2017-Jun-27 23:58N 50°17' W 125°14'0 0.0
2017-Jun-27 23:13N 50°17' W 125°14'0 0.0
2017-Jun-27 22:40N 50°17' W 125°14'0 0.0
2017-Jun-27 22:28N 50°17' W 125°14'0 0.0
2017-Jun-27 21:52N 50°17' W 125°14'0 0.0
2017-Jun-27 21:25N 50°17' W 125°14'0 0.2
2017-Jun-27 21:00N 50°16' W 125°14'4 6.6
2017-Jun-27 20:27N 50°19' W 125°10'510.8
2017-Jun-27 20:00N 50°16' W 125°04'713.2
2017-Jun-27 19:30N 50°10' W 125°03'4 8.6
2017-Jun-27 19:00N 50°06' W 125°02'1 1.3
2017-Jun-27 18:28N 50°06' W 125°01'0 0.0
2017-Jun-27 17:58N 50°06' W 125°01'0 0.0
2017-Jun-26 23:53N 50°06' W 125°01'0 0.0
2017-Jun-26 23:29N 50°06' W 125°01'0 0.0
2017-Jun-26 22:59N 50°06' W 125°01'0 0.0
2017-Jun-26 22:26N 50°06' W 125°01'0 0.0
2017-Jun-26 21:59N 50°06' W 125°01'0 0.0
2017-Jun-26 21:26N 50°06' W 125°01'0 0.0
2017-Jun-26 20:59N 50°06' W 125°01'0 0.0
2017-Jun-26 20:29N 50°06' W 125°01'0 0.0
2017-Jun-26 19:59N 50°06' W 125°01'0 0.0
2017-Jun-26 19:29N 50°06' W 125°01'0 0.0
2017-Jun-26 18:56N 50°06' W 125°01'0 0.0
2017-Jun-26 18:29N 50°06' W 125°01'2 4.9
2017-Jun-26 18:00N 50°04' W 125°01'510.7
2017-Jun-26 17:30N 50°00' W 124°55'815.7
2017-Jun-26 17:00N 49°57' W 124°43'713.2
2017-Jun-26 16:27N 49°52' W 124°35'612.4
2017-Jun-26 15:58N 49°47' W 124°29'713.2
2017-Jun-26 15:28N 49°44' W 124°20'41 1.8
2017-Jun-25 16:52N 49°21' W 123°28'614.2
2017-Jun-25 16:28N 49°19' W 123°20'715.1
2017-Jun-25 16:01N 49°17' W 123°10'2 2.6
2017-Jun-25 15:20N 49°16' W 123°07'0 0.0
2017-Jun-25 14:56N 49°16' W 123°07'0 0.0
2017-Jun-25 13:56N 49°16' W 123°07'0 0.0
2017-Jun-25 13:29N 49°16' W 123°07'0 0.0
2017-Jun-25 12:59N 49°16' W 123°07'0 0.0
2017-Jun-25 12:29N 49°16' W 123°07'0 0.0
2017-Jun-25 11:59N 49°16' W 123°07'0 0.0
2017-Jun-25 11:29N 49°16' W 123°07'0 0.0
2017-Jun-25 11:00N 49°16' W 123°07'0 0.0
2017-Jun-25 10:30N 49°16' W 123°07'0 0.0
2017-Jun-25 09:59N 49°16' W 123°07'0 0.0
2017-Jun-25 09:30N 49°16' W 123°07'0 0.0
2017-Jun-25 09:00N 49°16' W 123°07'0 0.0
2017-Jun-25 08:29N 49°16' W 123°07'0 0.0
2017-Jun-25 07:59N 49°16' W 123°07'0 0.0
2017-Jun-25 07:29N 49°16' W 123°07'0 0.0
2017-Jun-25 06:59N 49°16' W 123°07'0 0.0
2017-Jun-25 06:29N 49°16' W 123°07'0 0.0
2017-Jun-25 05:59N 49°16' W 123°07'0 0.0
2017-Jun-25 05:29N 49°16' W 123°07'0 0.0
2017-Jun-25 04:54N 49°16' W 123°07'0 0.0
2017-Jun-25 04:29N 49°16' W 123°07'0 0.0
2017-Jun-25 03:59N 49°16' W 123°07'0 0.0
2017-Jun-25 03:30N 49°16' W 123°07'0 0.0
2017-Jun-25 03:00N 49°16' W 123°07'0 0.0
2017-Jun-25 02:26N 49°16' W 123°07'0 0.0
2017-Jun-25 01:57N 49°16' W 123°07'0 0.0
2017-Jun-25 01:29N 49°16' W 123°07'0 0.0
2017-Jun-25 00:59N 49°16' W 123°07'0 0.0
2017-Jun-25 00:26N 49°16' W 123°07'0 0.0
2017-Jun-24 23:50N 49°16' W 123°07'0 0.0
2017-Jun-24 23:26N 49°16' W 123°07'0 0.0
2017-Jun-24 23:00N 49°16' W 123°07'0 0.0
2017-Jun-24 22:29N 49°16' W 123°07'0 0.0
2017-Jun-24 21:56N 49°16' W 123°07'0 0.0
2017-Jun-24 21:29N 49°16' W 123°07'0 0.0
2017-Jun-24 20:56N 49°16' W 123°07'0 0.0
2017-Jun-24 20:30N 49°16' W 123°07'0 0.0
2017-Jun-24 19:56N 49°16' W 123°07'0 0.0
2017-Jun-24 19:21N 49°16' W 123°07'0 0.0
2017-Jun-24 18:56N 49°16' W 123°07'0 0.0
2017-Jun-24 18:28N 49°16' W 123°07'0 0.0
2017-Jun-24 17:57N 49°16' W 123°07'0 0.0
2017-Jun-24 17:30N 49°16' W 123°07'0 0.0
2017-Jun-24 17:00N 49°16' W 123°07'0 0.0
2017-Jun-24 16:30N 49°16' W 123°07'0 0.0
2017-Jun-24 16:00N 49°16' W 123°07'0 0.0
2017-Jun-24 15:30N 49°16' W 123°07'0 0.0
2017-Jun-24 15:00N 49°16' W 123°07'0 0.0
2017-Jun-24 14:00N 49°16' W 123°07'0 0.0
2017-Jun-24 13:30N 49°16' W 123°07'0 0.0
2017-Jun-24 13:00N 49°16' W 123°07'0 0.0
2017-Jun-24 12:30N 49°16' W 123°07'0 0.0
2017-Jun-24 12:00N 49°16' W 123°07'0 0.0
2017-Jun-24 11:30N 49°16' W 123°07'0 0.0
2017-Jun-24 11:00N 49°16' W 123°07'0 0.0
2017-Jun-24 10:30N 49°16' W 123°07'0 0.0
2017-Jun-24 10:00N 49°16' W 123°07'0 0.0
2017-Jun-24 09:30N 49°16' W 123°07'0 0.0
2017-Jun-24 09:00N 49°16' W 123°07'0 0.0
2017-Jun-24 08:24N 49°16' W 123°07'0 0.0
2017-Jun-24 08:00N 49°16' W 123°07'0 0.0
2017-Jun-24 07:30N 49°16' W 123°07'0 0.0
2017-Jun-24 07:00N 49°16' W 123°07'0 0.0
2017-Jun-24 06:30N 49°16' W 123°07'0 0.0
2017-Jun-24 06:00N 49°16' W 123°07'0 0.0
2017-Jun-24 05:30N 49°16' W 123°07'0 0.0
2017-Jun-24 05:00N 49°16' W 123°07'0 0.0
2017-Jun-24 04:30N 49°16' W 123°07'0 0.0
2017-Jun-24 04:00N 49°16' W 123°07'0 0.0
2017-Jun-24 03:30N 49°16' W 123°07'0 0.0
2017-Jun-24 03:00N 49°16' W 123°07'0 0.0
2017-Jun-24 02:30N 49°16' W 123°07'0 0.0
2017-Jun-24 02:00N 49°16' W 123°07'0 0.0
2017-Jun-24 01:30N 49°16' W 123°07'0 0.0
2017-Jun-24 01:00N 49°16' W 123°07'0 0.0
2017-Jun-24 00:30N 49°16' W 123°07'0 0.0
2017-Jun-24 00:00N 49°16' W 123°07'0 0.0
2017-Jun-23 20:09N 49°16' W 123°07'0 0.0
2017-Jun-23 19:41N 49°16' W 123°07'1 2.5
2017-Jun-23 19:28N 49°16' W 123°08'4 9.3
2017-Jun-23 19:00N 49°17' W 123°14'3012.7
2017-Jun-23 16:37N 48°48' W 123°20'216.5
2017-Jun-23 16:30N 48°46' W 123°21'5 3.0
2017-Jun-23 14:45N 48°41' W 123°24'0 0.0
2017-Jun-23 14:27N 48°41' W 123°24'0 0.0
2017-Jun-22 21:09N 48°41' W 123°24'0 0.0
2017-Jun-22 20:51N 48°41' W 123°24'0 0.0
2017-Jun-22 20:15N 48°41' W 123°24'0 0.0
2017-Jun-22 19:58N 48°41' W 123°24'0 0.0
2017-Jun-22 16:18N 48°41' W 123°24'0 0.0
2017-Jun-22 08:58N 48°41' W 123°24'0 0.0
2017-Jun-21 10:58N 48°41' W 123°24'0 0.0
2017-Jun-21 09:28N 48°41' W 123°24'0 0.0
2017-Jun-21 08:52N 48°41' W 123°24'0 0.0
2017-Jun-21 08:28N 48°41' W 123°24'0 0.0
2017-Jun-21 07:46N 48°41' W 123°24'0 0.0
2017-Jun-21 07:16N 48°41' W 123°24'0 0.0
2017-Jun-21 06:46N 48°41' W 123°24'  
2017-Jun-18 17:50N 48°41' W 123°24'2 5.4
2017-Jun-18 17:30N 48°43' W 123°23'  
Track history (hours):
 
Tides and Currents Weather Stations Pressure Air Temp Water Temp Dewpoint Dewpoint Depression Visibility Wind Speed Wind Dir Waves Ship Positions

Dolce Far Niente

Last reported at 2017-Jun-28 02:01 UTC. Time now 2017-Jun-28 17:29 UTC.
Position N 50°17' W 125°14'.

Type: Pleasure craft. MMSI: 316020002.

Date/timePositionNaut miles runAvg speedWind from/ knotsBaromVisibWave heightAir tempDewpointWater temp
2017-Jun-28 02:01N 50°17' W 125°14'0 0.1
2017-Jun-28 01:55N 50°17' W 125°14'0 0.0
2017-Jun-28 01:28N 50°17' W 125°14'0 0.0
2017-Jun-28 00:58N 50°17' W 125°14'0 0.0
2017-Jun-28 00:25N 50°17' W 125°14'0 0.0
2017-Jun-27 23:58N 50°17' W 125°14'0 0.0
2017-Jun-27 23:13N 50°17' W 125°14'0 0.0
2017-Jun-27 22:40N 50°17' W 125°14'0 0.0
2017-Jun-27 22:28N 50°17' W 125°14'0 0.0
2017-Jun-27 21:52N 50°17' W 125°14'0 0.0
2017-Jun-27 21:25N 50°17' W 125°14'0 0.2
2017-Jun-27 21:00N 50°16' W 125°14'4 6.6
2017-Jun-27 20:27N 50°19' W 125°10'510.8
2017-Jun-27 20:00N 50°16' W 125°04'713.2
2017-Jun-27 19:30N 50°10' W 125°03'4 8.6
2017-Jun-27 19:00N 50°06' W 125°02'1 1.3
2017-Jun-27 18:28N 50°06' W 125°01'0 0.0
2017-Jun-27 17:58N 50°06' W 125°01'0 0.0
2017-Jun-26 23:53N 50°06' W 125°01'0 0.0
2017-Jun-26 23:29N 50°06' W 125°01'0 0.0
2017-Jun-26 22:59N 50°06' W 125°01'0 0.0
2017-Jun-26 22:26N 50°06' W 125°01'0 0.0
2017-Jun-26 21:59N 50°06' W 125°01'0 0.0
2017-Jun-26 21:26N 50°06' W 125°01'0 0.0
2017-Jun-26 20:59N 50°06' W 125°01'0 0.0
2017-Jun-26 20:29N 50°06' W 125°01'0 0.0
2017-Jun-26 19:59N 50°06' W 125°01'0 0.0
2017-Jun-26 19:29N 50°06' W 125°01'0 0.0
2017-Jun-26 18:56N 50°06' W 125°01'0 0.0
2017-Jun-26 18:29N 50°06' W 125°01'2 4.9
2017-Jun-26 18:00N 50°04' W 125°01'510.7
2017-Jun-26 17:30N 50°00' W 124°55'815.7
2017-Jun-26 17:00N 49°57' W 124°43'713.2
2017-Jun-26 16:27N 49°52' W 124°35'612.4
2017-Jun-26 15:58N 49°47' W 124°29'713.2
2017-Jun-26 15:28N 49°44' W 124°20'41 1.8
2017-Jun-25 16:52N 49°21' W 123°28'614.2
2017-Jun-25 16:28N 49°19' W 123°20'715.1
2017-Jun-25 16:01N 49°17' W 123°10'2 2.6
2017-Jun-25 15:20N 49°16' W 123°07'0 0.0
2017-Jun-25 14:56N 49°16' W 123°07'0 0.0
2017-Jun-25 13:56N 49°16' W 123°07'0 0.0
2017-Jun-25 13:29N 49°16' W 123°07'0 0.0
2017-Jun-25 12:59N 49°16' W 123°07'0 0.0
2017-Jun-25 12:29N 49°16' W 123°07'0 0.0
2017-Jun-25 11:59N 49°16' W 123°07'0 0.0
2017-Jun-25 11:29N 49°16' W 123°07'0 0.0
2017-Jun-25 11:00N 49°16' W 123°07'0 0.0
2017-Jun-25 10:30N 49°16' W 123°07'0 0.0
2017-Jun-25 09:59N 49°16' W 123°07'0 0.0
2017-Jun-25 09:30N 49°16' W 123°07'0 0.0
2017-Jun-25 09:00N 49°16' W 123°07'0 0.0
2017-Jun-25 08:29N 49°16' W 123°07'0 0.0
2017-Jun-25 07:59N 49°16' W 123°07'0 0.0
2017-Jun-25 07:29N 49°16' W 123°07'0 0.0
2017-Jun-25 06:59N 49°16' W 123°07'0 0.0
2017-Jun-25 06:29N 49°16' W 123°07'0 0.0
2017-Jun-25 05:59N 49°16' W 123°07'0 0.0
2017-Jun-25 05:29N 49°16' W 123°07'0 0.0
2017-Jun-25 04:54N 49°16' W 123°07'0 0.0
2017-Jun-25 04:29N 49°16' W 123°07'0 0.0
2017-Jun-25 03:59N 49°16' W 123°07'0 0.0
2017-Jun-25 03:30N 49°16' W 123°07'0 0.0
2017-Jun-25 03:00N 49°16' W 123°07'0 0.0
2017-Jun-25 02:26N 49°16' W 123°07'0 0.0
2017-Jun-25 01:57N 49°16' W 123°07'0 0.0
2017-Jun-25 01:29N 49°16' W 123°07'0 0.0
2017-Jun-25 00:59N 49°16' W 123°07'0 0.0
2017-Jun-25 00:26N 49°16' W 123°07'0 0.0
2017-Jun-24 23:50N 49°16' W 123°07'0 0.0
2017-Jun-24 23:26N 49°16' W 123°07'0 0.0
2017-Jun-24 23:00N 49°16' W 123°07'0 0.0
2017-Jun-24 22:29N 49°16' W 123°07'0 0.0
2017-Jun-24 21:56N 49°16' W 123°07'0 0.0
2017-Jun-24 21:29N 49°16' W 123°07'0 0.0
2017-Jun-24 20:56N 49°16' W 123°07'0 0.0
2017-Jun-24 20:30N 49°16' W 123°07'0 0.0
2017-Jun-24 19:56N 49°16' W 123°07'0 0.0
2017-Jun-24 19:21N 49°16' W 123°07'0 0.0
2017-Jun-24 18:56N 49°16' W 123°07'0 0.0
2017-Jun-24 18:28N 49°16' W 123°07'0 0.0
2017-Jun-24 17:57N 49°16' W 123°07'0 0.0
2017-Jun-24 17:30N 49°16' W 123°07'0 0.0
2017-Jun-24 17:00N 49°16' W 123°07'0 0.0
2017-Jun-24 16:30N 49°16' W 123°07'0 0.0
2017-Jun-24 16:00N 49°16' W 123°07'0 0.0
2017-Jun-24 15:30N 49°16' W 123°07'0 0.0
2017-Jun-24 15:00N 49°16' W 123°07'0 0.0
2017-Jun-24 14:00N 49°16' W 123°07'0 0.0
2017-Jun-24 13:30N 49°16' W 123°07'0 0.0
2017-Jun-24 13:00N 49°16' W 123°07'0 0.0
2017-Jun-24 12:30N 49°16' W 123°07'0 0.0
2017-Jun-24 12:00N 49°16' W 123°07'0 0.0
2017-Jun-24 11:30N 49°16' W 123°07'0 0.0
2017-Jun-24 11:00N 49°16' W 123°07'0 0.0
2017-Jun-24 10:30N 49°16' W 123°07'0 0.0
2017-Jun-24 10:00N 49°16' W 123°07'0 0.0
2017-Jun-24 09:30N 49°16' W 123°07'0 0.0
2017-Jun-24 09:00N 49°16' W 123°07'0 0.0
2017-Jun-24 08:24N 49°16' W 123°07'0 0.0
2017-Jun-24 08:00N 49°16' W 123°07'0 0.0
2017-Jun-24 07:30N 49°16' W 123°07'0 0.0
2017-Jun-24 07:00N 49°16' W 123°07'0 0.0
2017-Jun-24 06:30N 49°16' W 123°07'0 0.0
2017-Jun-24 06:00N 49°16' W 123°07'0 0.0
2017-Jun-24 05:30N 49°16' W 123°07'0 0.0
2017-Jun-24 05:00N 49°16' W 123°07'0 0.0
2017-Jun-24 04:30N 49°16' W 123°07'0 0.0
2017-Jun-24 04:00N 49°16' W 123°07'0 0.0
2017-Jun-24 03:30N 49°16' W 123°07'0 0.0
2017-Jun-24 03:00N 49°16' W 123°07'0 0.0
2017-Jun-24 02:30N 49°16' W 123°07'0 0.0
2017-Jun-24 02:00N 49°16' W 123°07'0 0.0
2017-Jun-24 01:30N 49°16' W 123°07'0 0.0
2017-Jun-24 01:00N 49°16' W 123°07'0 0.0
2017-Jun-24 00:30N 49°16' W 123°07'0 0.0
2017-Jun-24 00:00N 49°16' W 123°07'0 0.0
2017-Jun-23 20:09N 49°16' W 123°07'0 0.0
2017-Jun-23 19:41N 49°16' W 123°07'1 2.5
2017-Jun-23 19:28N 49°16' W 123°08'4 9.3
2017-Jun-23 19:00N 49°17' W 123°14'3012.7
2017-Jun-23 16:37N 48°48' W 123°20'216.5
2017-Jun-23 16:30N 48°46' W 123°21'5 3.0
2017-Jun-23 14:45N 48°41' W 123°24'0 0.0
2017-Jun-23 14:27N 48°41' W 123°24'0 0.0
2017-Jun-22 21:09N 48°41' W 123°24'0 0.0
2017-Jun-22 20:51N 48°41' W 123°24'0 0.0
2017-Jun-22 20:15N 48°41' W 123°24'0 0.0
2017-Jun-22 19:58N 48°41' W 123°24'0 0.0
2017-Jun-22 16:18N 48°41' W 123°24'0 0.0
2017-Jun-22 08:58N 48°41' W 123°24'0 0.0
2017-Jun-21 10:58N 48°41' W 123°24'0 0.0
2017-Jun-21 09:28N 48°41' W 123°24'0 0.0
2017-Jun-21 08:52N 48°41' W 123°24'0 0.0
2017-Jun-21 08:28N 48°41' W 123°24'0 0.0
2017-Jun-21 07:46N 48°41' W 123°24'0 0.0
2017-Jun-21 07:16N 48°41' W 123°24'0 0.0
2017-Jun-21 06:46N 48°41' W 123°24'  
2017-Jun-18 17:50N 48°41' W 123°24'2 5.4
2017-Jun-18 17:30N 48°43' W 123°23'  

Dump ship's entire track history